createdAt,value
2022-09-07T00:00:50.788Z,72
2022-09-07T00:02:51.255Z,72
2022-09-07T00:04:50.664Z,73
2022-09-07T00:06:50.199Z,72
2022-09-07T00:08:50.393Z,72
2022-09-07T00:10:50.178Z,72
2022-09-07T00:12:50.171Z,72
2022-09-07T00:14:51.013Z,72
2022-09-07T00:16:50.296Z,72
2022-09-07T00:18:50.144Z,72
2022-09-07T00:20:50.933Z,72
2022-09-07T00:22:51.057Z,72
2022-09-07T00:24:50.253Z,72
2022-09-07T00:26:50.716Z,72
2022-09-07T00:28:50.634Z,72
2022-09-07T00:30:50.852Z,72
2022-09-07T00:32:50.869Z,72
2022-09-07T00:34:50.305Z,72
2022-09-07T00:36:50.548Z,72
2022-09-07T00:38:50.479Z,72
2022-09-07T00:40:50.397Z,72
2022-09-07T00:42:50.332Z,72
2022-09-07T00:44:50.251Z,72
2022-09-07T00:46:50.528Z,72
2022-09-07T00:48:50.496Z,72
2022-09-07T00:50:50.425Z,72
2022-09-07T00:52:50.566Z,72
2022-09-07T00:54:50.394Z,72
2022-09-07T00:56:50.536Z,72
2022-09-07T00:58:50.407Z,72
2022-09-07T01:00:50.327Z,72
2022-09-07T01:02:51.010Z,72
2022-09-07T01:04:50.527Z,72
2022-09-07T01:06:50.837Z,73
2022-09-07T01:08:50.850Z,73
2022-09-07T01:10:50.796Z,75
2022-09-07T01:12:50.830Z,75
2022-09-07T01:14:50.900Z,76
2022-09-07T01:16:50.891Z,77
2022-09-07T01:18:50.714Z,77
2022-09-07T01:20:50.734Z,76
2022-09-07T01:22:50.746Z,75
2022-09-07T01:24:50.501Z,75
2022-09-07T01:26:50.852Z,75
2022-09-07T01:28:50.624Z,75
2022-09-07T01:30:50.982Z,75
2022-09-07T01:32:50.945Z,74
2022-09-07T01:34:50.490Z,74
2022-09-07T01:36:50.700Z,75
2022-09-07T01:38:50.742Z,75
2022-09-07T01:40:50.953Z,77
2022-09-07T01:42:50.921Z,77
2022-09-07T01:44:50.195Z,77
2022-09-07T01:46:50.701Z,76
2022-09-07T01:48:50.862Z,77
2022-09-07T01:50:50.699Z,77
2022-09-07T01:52:50.792Z,76
2022-09-07T01:54:50.728Z,76
2022-09-07T01:56:50.982Z,76
2022-09-07T01:58:50.874Z,76
2022-09-07T02:00:50.867Z,75
2022-09-07T02:02:51.246Z,77
2022-09-07T02:04:50.841Z,77
2022-09-07T02:06:50.135Z,77
2022-09-07T02:08:50.599Z,77
2022-09-07T02:10:50.723Z,77
2022-09-07T02:12:50.898Z,77
2022-09-07T02:14:53.364Z,77
2022-09-07T02:16:50.575Z,77
2022-09-07T02:18:50.570Z,76
2022-09-07T02:20:50.632Z,76
2022-09-07T02:22:50.616Z,76
2022-09-07T02:24:50.709Z,76
2022-09-07T02:26:50.191Z,76
2022-09-07T02:28:50.046Z,76
2022-09-07T02:30:50.407Z,76
2022-09-07T02:32:50.177Z,76
2022-09-07T02:34:50.596Z,77
2022-09-07T02:36:50.950Z,77
2022-09-07T02:38:51.068Z,76
2022-09-07T02:40:50.084Z,76
2022-09-07T02:42:50.154Z,76
2022-09-07T02:44:50.525Z,76
2022-09-07T02:46:50.692Z,76
2022-09-07T02:48:50.721Z,76
2022-09-07T02:50:50.759Z,76
2022-09-07T02:52:50.057Z,76
2022-09-07T02:54:50.065Z,76
2022-09-07T02:56:50.323Z,76
2022-09-07T02:58:50.383Z,76
2022-09-07T03:00:50.336Z,76
2022-09-07T03:02:50.901Z,76
2022-09-07T03:04:50.576Z,76
2022-09-07T03:06:50.798Z,76
2022-09-07T03:08:50.917Z,76
2022-09-07T03:10:51.015Z,76
2022-09-07T03:12:50.072Z,76
2022-09-07T03:14:50.907Z,78
2022-09-07T03:16:50.102Z,79
2022-09-07T03:18:50.053Z,79
2022-09-07T03:20:50.095Z,79
2022-09-07T03:22:50.187Z,79
2022-09-07T03:24:51.043Z,78
2022-09-07T03:26:50.579Z,78
2022-09-07T03:28:50.763Z,78
2022-09-07T03:30:51.374Z,78
2022-09-07T03:32:50.326Z,78
2022-09-07T03:34:50.780Z,80
2022-09-07T03:36:50.527Z,80
2022-09-07T03:38:50.653Z,80
2022-09-07T03:40:50.699Z,80
2022-09-07T03:42:50.827Z,79
2022-09-07T03:44:50.843Z,79
2022-09-07T03:46:50.175Z,79
2022-09-07T03:48:50.840Z,79
2022-09-07T03:50:50.827Z,79
2022-09-07T03:52:50.652Z,80
2022-09-07T03:54:50.857Z,80
2022-09-07T03:56:51.012Z,79
2022-09-07T03:58:50.209Z,79
2022-09-07T04:00:50.950Z,79
2022-09-07T04:02:50.494Z,79
2022-09-07T04:04:50.324Z,79
2022-09-07T04:06:50.514Z,79
2022-09-07T04:08:50.500Z,79
2022-09-07T04:10:50.739Z,79
2022-09-07T04:12:51.032Z,79
2022-09-07T04:14:51.005Z,78
2022-09-07T04:16:50.505Z,78
2022-09-07T04:18:50.621Z,78
2022-09-07T04:20:50.606Z,78
2022-09-07T04:22:54.916Z,78
2022-09-07T04:24:50.871Z,78
2022-09-07T04:26:50.985Z,78
2022-09-07T04:28:50.904Z,78
2022-09-07T04:30:51.373Z,78
2022-09-07T04:32:50.809Z,78
2022-09-07T04:34:50.209Z,79
2022-09-07T04:36:50.537Z,79
2022-09-07T04:38:50.294Z,79
2022-09-07T04:40:50.284Z,79
2022-09-07T04:42:50.224Z,79
2022-09-07T04:44:50.336Z,79
2022-09-07T04:46:50.555Z,79
2022-09-07T04:48:50.478Z,78
2022-09-07T04:50:50.210Z,78
2022-09-07T04:52:50.114Z,78
2022-09-07T04:54:50.576Z,78
2022-09-07T04:56:50.900Z,79
2022-09-07T04:58:50.913Z,79
2022-09-07T05:00:51.042Z,79
2022-09-07T05:02:50.479Z,79
2022-09-07T05:04:50.132Z,79
2022-09-07T05:06:50.269Z,79
2022-09-07T05:08:50.325Z,80
2022-09-07T05:10:50.361Z,79
2022-09-07T05:12:50.239Z,79
2022-09-07T05:14:50.044Z,79
2022-09-07T05:16:50.997Z,79
2022-09-07T05:18:50.960Z,79
2022-09-07T05:20:50.979Z,80
2022-09-07T05:22:51.003Z,80
2022-09-07T05:24:50.113Z,80
2022-09-07T05:26:50.304Z,80
2022-09-07T05:28:51.456Z,80
2022-09-07T05:31:20.349Z,80
2022-09-07T05:32:50.797Z,80
2022-09-07T05:34:53.551Z,80
2022-09-07T05:36:50.641Z,80
2022-09-07T05:38:50.727Z,80
2022-09-07T05:40:50.770Z,80
2022-09-07T05:42:50.844Z,80
2022-09-07T05:44:50.902Z,80
2022-09-07T05:46:50.975Z,79
2022-09-07T05:48:50.038Z,79
2022-09-07T05:50:50.977Z,79
2022-09-07T05:52:50.927Z,79
2022-09-07T05:54:52.654Z,80
2022-09-07T05:56:50.737Z,80
2022-09-07T05:58:50.791Z,80
2022-09-07T06:00:51.007Z,80
2022-09-07T06:02:51.641Z,80
2022-09-07T06:04:50.364Z,79
2022-09-07T06:07:23.316Z,80
2022-09-07T06:08:50.575Z,79
2022-09-07T06:10:50.683Z,79
2022-09-07T06:12:50.800Z,79
2022-09-07T06:14:50.814Z,79
2022-09-07T06:16:50.899Z,79
2022-09-07T06:18:50.888Z,79
2022-09-07T06:20:50.100Z,79
2022-09-07T06:22:50.192Z,79
2022-09-07T06:24:50.261Z,79
2022-09-07T06:26:50.861Z,79
2022-09-07T06:28:58.396Z,79
2022-09-07T06:30:50.364Z,79
2022-09-07T06:32:50.233Z,79
2022-09-07T06:34:50.906Z,79
2022-09-07T06:36:50.257Z,79
2022-09-07T06:38:50.388Z,78
2022-09-07T06:42:50.111Z,78
2022-09-07T06:44:50.264Z,78
2022-09-07T06:48:50.836Z,78
2022-09-07T06:50:50.938Z,78
2022-09-07T06:56:50.177Z,77
2022-09-07T06:58:50.259Z,77
2022-09-07T07:00:50.693Z,77
2022-09-07T07:02:51.099Z,77
2022-09-07T07:04:50.683Z,77
2022-09-07T07:06:50.961Z,77
2022-09-07T07:08:50.945Z,77
2022-09-07T07:10:50.935Z,77
2022-09-07T07:12:50.076Z,76
2022-09-07T07:14:50.928Z,76
2022-09-07T07:16:50.669Z,76
2022-09-07T07:18:50.538Z,76
2022-09-07T07:20:50.633Z,76
2022-09-07T07:22:50.909Z,76
2022-09-07T07:24:50.827Z,76
2022-09-07T07:26:50.294Z,76
2022-09-07T07:29:03.508Z,76
2022-09-07T07:30:50.474Z,76
2022-09-07T07:32:50.427Z,76
2022-09-07T07:34:50.942Z,76
2022-09-07T07:36:50.386Z,76
2022-09-07T07:39:03.481Z,76
2022-09-07T07:41:56.396Z,76
2022-09-07T07:42:50.212Z,76
2022-09-07T07:45:55.442Z,76
2022-09-07T07:46:51.464Z,76
2022-09-07T07:48:50.431Z,76
2022-09-07T07:50:50.560Z,76
2022-09-07T07:53:42.703Z,75
2022-09-07T07:54:50.069Z,75
2022-09-07T07:56:50.189Z,75
2022-09-07T07:58:50.253Z,75
2022-09-07T08:00:58.257Z,75
2022-09-07T08:02:50.820Z,75
2022-09-07T08:04:50.239Z,75
2022-09-07T08:06:50.458Z,75
2022-09-07T08:08:50.384Z,74
2022-09-07T08:10:50.398Z,74
2022-09-07T08:12:50.210Z,73
2022-09-07T08:14:50.203Z,73
2022-09-07T08:16:50.399Z,73
2022-09-07T08:18:50.511Z,73
2022-09-07T08:20:50.372Z,73
2022-09-07T08:22:50.504Z,72
2022-09-07T08:24:50.322Z,72
2022-09-07T08:26:50.608Z,73
2022-09-07T08:28:50.488Z,72
2022-09-07T08:30:50.435Z,72
2022-09-07T08:32:50.411Z,71
2022-09-07T08:34:50.062Z,70
2022-09-07T08:36:50.130Z,70
2022-09-07T08:38:50.111Z,70
2022-09-07T08:40:50.950Z,69
2022-09-07T08:42:50.005Z,69
2022-09-07T08:44:50.910Z,69
2022-09-07T08:46:51.053Z,69
2022-09-07T08:48:50.954Z,69
2022-09-07T08:50:50.093Z,69
2022-09-07T08:52:50.956Z,68
2022-09-07T08:54:51.027Z,68
2022-09-07T08:57:21.655Z,68
2022-09-07T08:58:51.383Z,68
2022-09-07T09:01:31.131Z,67
2022-09-07T09:03:30.948Z,67
2022-09-07T09:05:19.757Z,67
2022-09-07T09:06:51.595Z,67
2022-09-07T09:08:50.360Z,67
2022-09-07T09:10:50.436Z,67
2022-09-07T09:12:50.407Z,67
2022-09-07T09:14:50.668Z,66
2022-09-07T09:16:50.819Z,66
2022-09-07T09:18:50.132Z,66
2022-09-07T09:20:50.105Z,66
2022-09-07T09:22:51.006Z,65
2022-09-07T09:24:51.038Z,65
2022-09-07T09:28:50.250Z,65
2022-09-07T09:30:51.388Z,64
2022-09-07T09:32:50.569Z,64
2022-09-07T09:34:51.024Z,64
2022-09-07T09:36:50.550Z,64
2022-09-07T09:38:50.553Z,64
2022-09-07T09:40:50.780Z,64
2022-09-07T09:42:50.560Z,63
2022-09-07T09:44:50.391Z,61
2022-09-07T09:47:31.147Z,61
2022-09-07T09:48:50.465Z,61
2022-09-07T09:52:52.755Z,62
2022-09-07T09:54:50.614Z,62
2022-09-07T09:56:50.828Z,61
2022-09-07T09:59:58.455Z,61
2022-09-07T10:01:23.282Z,61
2022-09-07T10:03:56.649Z,60
2022-09-07T10:04:50.083Z,60
2022-09-07T10:06:50.421Z,60
2022-09-07T10:08:50.297Z,60
2022-09-07T10:10:50.302Z,59
2022-09-07T10:12:50.288Z,59
2022-09-07T10:14:50.417Z,59
2022-09-07T10:16:50.783Z,59
2022-09-07T10:18:50.887Z,59
2022-09-07T10:20:50.710Z,58
2022-09-07T10:22:52.226Z,56
2022-09-07T10:24:50.340Z,56
2022-09-07T10:26:50.464Z,56
2022-09-07T10:29:09.582Z,56
2022-09-07T10:30:51.162Z,55
2022-09-07T10:32:50.212Z,55
2022-09-07T10:34:50.777Z,55
2022-09-07T10:36:50.949Z,55
2022-09-07T10:38:50.805Z,55
2022-09-07T10:40:50.770Z,56
2022-09-07T10:43:22.217Z,56
2022-09-07T10:44:50.498Z,56
2022-09-07T10:46:59.364Z,55
2022-09-07T10:48:50.385Z,55
2022-09-07T10:50:50.170Z,54
2022-09-07T10:52:50.128Z,55
2022-09-07T10:54:50.789Z,55
2022-09-07T10:56:50.122Z,55
2022-09-07T10:59:05.189Z,55
2022-09-07T11:00:50.780Z,56
2022-09-07T11:03:28.395Z,54
2022-09-07T11:04:50.504Z,54
2022-09-07T11:06:50.711Z,54
2022-09-07T11:09:20.351Z,54
2022-09-07T11:10:50.445Z,54
2022-09-07T11:12:50.439Z,54
2022-09-07T11:14:50.363Z,54
2022-09-07T11:16:52.797Z,54
2022-09-07T11:18:52.051Z,52
2022-09-07T11:20:50.188Z,52
2022-09-07T11:22:50.192Z,52
2022-09-07T11:25:30.259Z,52
2022-09-07T11:26:50.405Z,52
2022-09-07T11:29:30.256Z,52
2022-09-07T11:30:50.968Z,51
2022-09-07T11:32:50.987Z,51
2022-09-07T11:34:54.663Z,51
2022-09-07T11:36:50.904Z,51
2022-09-07T11:38:50.786Z,51
2022-09-07T11:40:50.644Z,52
2022-09-07T11:42:50.853Z,52
2022-09-07T11:44:51.017Z,51
2022-09-07T11:46:50.094Z,51
2022-09-07T11:48:51.036Z,50
2022-09-07T11:50:51.022Z,51
2022-09-07T11:52:54.417Z,51
2022-09-07T11:54:50.428Z,51
2022-09-07T11:56:50.553Z,51
2022-09-07T11:58:50.947Z,51
2022-09-07T12:00:50.812Z,51
2022-09-07T12:03:01.689Z,51
2022-09-07T12:04:57.560Z,52
2022-09-07T12:06:50.928Z,52
2022-09-07T12:08:50.796Z,51
2022-09-07T12:10:50.860Z,51
2022-09-07T12:12:50.785Z,51
2022-09-07T12:14:50.729Z,51
2022-09-07T12:16:50.088Z,51
2022-09-07T12:18:50.951Z,51
2022-09-07T12:20:50.963Z,51
2022-09-07T12:22:50.834Z,51
2022-09-07T12:24:50.922Z,50
2022-09-07T12:26:50.240Z,50
2022-09-07T12:28:50.481Z,50
2022-09-07T12:30:50.690Z,50
2022-09-07T12:32:59.247Z,51
2022-09-07T12:34:50.507Z,49
2022-09-07T12:36:50.547Z,50
2022-09-07T12:38:50.426Z,49
2022-09-07T12:40:50.573Z,49
2022-09-07T12:42:50.601Z,50
2022-09-07T12:44:50.722Z,49
2022-09-07T12:46:51.036Z,49
2022-09-07T12:48:50.038Z,49
2022-09-07T12:50:51.617Z,49
2022-09-07T12:52:50.618Z,48
2022-09-07T12:55:29.063Z,49
2022-09-07T12:57:30.513Z,49
2022-09-07T12:58:50.582Z,48
2022-09-07T13:00:50.503Z,49
2022-09-07T13:02:50.561Z,49
2022-09-07T13:04:52.993Z,49
2022-09-07T13:07:04.135Z,49
2022-09-07T13:08:50.541Z,49
2022-09-07T13:10:50.472Z,49
2022-09-07T13:12:58.187Z,49
2022-09-07T13:14:51.898Z,49
2022-09-07T13:17:17.910Z,49
2022-09-07T13:18:50.052Z,49
2022-09-07T13:20:50.190Z,49
2022-09-07T13:22:50.100Z,49
2022-09-07T13:24:51.884Z,48
2022-09-07T13:26:51.897Z,48
2022-09-07T13:28:50.834Z,48
2022-09-07T13:30:51.366Z,48
2022-09-07T13:33:09.419Z,47
2022-09-07T13:34:50.530Z,47
2022-09-07T13:36:50.682Z,47
2022-09-07T13:38:50.987Z,46
2022-09-07T13:40:50.850Z,46
2022-09-07T13:42:50.727Z,46
2022-09-07T13:44:50.475Z,46
2022-09-07T13:46:50.623Z,46
2022-09-07T13:48:50.571Z,46
2022-09-07T13:50:50.682Z,46
2022-09-07T13:52:50.576Z,47
2022-09-07T13:54:50.456Z,47
2022-09-07T13:56:50.075Z,47
2022-09-07T13:58:51.092Z,46
2022-09-07T14:00:50.217Z,47
2022-09-07T14:02:57.613Z,46
2022-09-07T14:04:50.066Z,46
2022-09-07T14:06:50.320Z,46
2022-09-07T14:08:50.242Z,45
2022-09-07T14:10:50.308Z,45
2022-09-07T14:12:50.450Z,45
2022-09-07T14:14:50.301Z,46
2022-09-07T14:16:50.848Z,45
2022-09-07T14:18:50.657Z,46
2022-09-07T14:20:50.355Z,46
2022-09-07T14:22:54.036Z,46
2022-09-07T14:24:50.901Z,46
2022-09-07T14:26:51.024Z,45
2022-09-07T14:28:50.932Z,45
2022-09-07T14:30:51.155Z,45
2022-09-07T14:32:51.035Z,45
2022-09-07T14:34:50.306Z,46
2022-09-07T14:36:50.349Z,46
2022-09-07T14:39:06.566Z,46
2022-09-07T14:40:52.225Z,46
2022-09-07T14:42:50.451Z,45
2022-09-07T14:44:50.395Z,45
2022-09-07T14:46:57.794Z,44
2022-09-07T14:48:51.033Z,44
2022-09-07T14:51:35.934Z,44
2022-09-07T14:53:34.591Z,45
2022-09-07T14:54:50.889Z,44
2022-09-07T14:56:50.973Z,45
2022-09-07T14:58:50.996Z,43
2022-09-07T15:01:38.476Z,43
2022-09-07T15:02:50.736Z,42
2022-09-07T15:04:50.223Z,43
2022-09-07T15:07:03.591Z,42
2022-09-07T15:08:50.129Z,42
2022-09-07T15:11:34.155Z,42
2022-09-07T15:12:50.324Z,42
2022-09-07T15:14:50.076Z,41
2022-09-07T15:17:44.761Z,41
2022-09-07T15:18:50.205Z,41
2022-09-07T15:20:50.281Z,41
2022-09-07T15:22:50.439Z,40
2022-09-07T15:24:50.615Z,40
2022-09-07T15:27:04.707Z,41
2022-09-07T15:29:19.190Z,41
2022-09-07T15:31:48.093Z,41
2022-09-07T15:32:50.646Z,41
2022-09-07T15:34:50.926Z,40
2022-09-07T15:36:50.352Z,41
2022-09-07T15:39:03.826Z,41
2022-09-07T15:41:24.736Z,41
2022-09-07T15:43:20.543Z,41
2022-09-07T15:44:51.026Z,40
2022-09-07T15:47:51.446Z,40
2022-09-07T15:48:50.315Z,41
2022-09-07T15:50:50.632Z,40
2022-09-07T15:52:50.683Z,40
2022-09-07T15:54:50.588Z,40
2022-09-07T15:57:59.729Z,41
2022-09-07T15:58:50.673Z,41
2022-09-07T16:01:52.617Z,41
2022-09-07T16:03:09.949Z,41
2022-09-07T16:04:51.544Z,41
2022-09-07T16:06:50.776Z,41
2022-09-07T16:08:52.164Z,39
2022-09-07T16:11:11.344Z,40
2022-09-07T16:13:16.564Z,39
2022-09-07T16:14:57.195Z,39
2022-09-07T16:17:37.062Z,40
2022-09-07T16:18:50.822Z,39
2022-09-07T16:20:53.711Z,39
2022-09-07T16:23:16.647Z,39
2022-09-07T16:24:50.082Z,40
2022-09-07T16:26:50.428Z,40
2022-09-07T16:28:50.345Z,40
2022-09-07T16:30:50.056Z,40
2022-09-07T16:32:51.349Z,40
2022-09-07T16:34:50.756Z,41
2022-09-07T16:36:50.798Z,41
2022-09-07T16:38:50.795Z,41
2022-09-07T16:40:50.769Z,40
2022-09-07T16:42:50.828Z,40
2022-09-07T16:44:52.588Z,40
2022-09-07T16:46:51.575Z,41
2022-09-07T16:48:50.531Z,41
2022-09-07T16:50:50.461Z,40
2022-09-07T16:52:50.348Z,40
2022-09-07T16:54:51.767Z,40
2022-09-07T16:56:50.024Z,41
2022-09-07T16:58:52.444Z,41
2022-09-07T17:00:50.902Z,41
2022-09-07T17:02:51.066Z,41
2022-09-07T17:04:50.537Z,41
2022-09-07T17:06:50.783Z,41
2022-09-07T17:08:50.669Z,42
2022-09-07T17:10:50.562Z,42
2022-09-07T17:12:50.523Z,42
2022-09-07T17:14:50.379Z,42
2022-09-07T17:16:50.823Z,42
2022-09-07T17:19:30.824Z,42
2022-09-07T17:20:50.096Z,42
2022-09-07T17:22:50.195Z,42
2022-09-07T17:24:51.014Z,42
2022-09-07T17:26:50.257Z,43
2022-09-07T17:28:50.382Z,43
2022-09-07T17:30:50.229Z,43
2022-09-07T17:32:50.396Z,43
2022-09-07T17:34:52.152Z,43
2022-09-07T17:36:51.749Z,43
2022-09-07T17:39:18.725Z,43
2022-09-07T17:40:50.180Z,43
2022-09-07T17:43:45.948Z,43
2022-09-07T17:44:53.508Z,44
2022-09-07T17:46:50.636Z,44
2022-09-07T17:48:50.774Z,44
2022-09-07T17:50:50.609Z,44
2022-09-07T17:52:53.688Z,44
2022-09-07T17:54:50.545Z,44
2022-09-07T17:56:50.690Z,44
2022-09-07T17:58:51.874Z,44
2022-09-07T18:00:52.192Z,44
2022-09-07T18:02:51.003Z,45
2022-09-07T18:04:50.711Z,45
2022-09-07T18:06:51.119Z,45
2022-09-07T18:08:50.967Z,45
2022-09-07T18:11:47.512Z,45
2022-09-07T18:12:50.752Z,45
2022-09-07T18:14:50.741Z,45
2022-09-07T18:16:51.595Z,45
2022-09-07T18:18:50.568Z,46
2022-09-07T18:20:50.486Z,46
2022-09-07T18:22:50.364Z,46
2022-09-07T18:24:50.249Z,46
2022-09-07T18:26:53.049Z,46
2022-09-07T18:29:32.174Z,46
2022-09-07T18:30:50.849Z,46
2022-09-07T18:32:50.912Z,47
2022-09-07T18:34:51.670Z,47
2022-09-07T18:36:51.060Z,47
2022-09-07T18:38:50.957Z,47
2022-09-07T18:40:51.774Z,48
2022-09-07T18:42:53.084Z,48
2022-09-07T18:45:28.314Z,48
2022-09-07T18:46:50.491Z,48
2022-09-07T18:48:50.479Z,48
2022-09-07T18:50:51.011Z,48
2022-09-07T18:53:16.013Z,48
2022-09-07T18:54:51.127Z,48
2022-09-07T18:56:50.431Z,48
2022-09-07T18:58:50.310Z,48
2022-09-07T19:00:50.926Z,49
2022-09-07T19:02:50.956Z,49
2022-09-07T19:05:52.679Z,49
2022-09-07T19:06:50.669Z,49
2022-09-07T19:08:50.558Z,49
2022-09-07T19:10:50.466Z,49
2022-09-07T19:12:50.334Z,50
2022-09-07T19:14:50.502Z,50
2022-09-07T19:16:50.677Z,51
2022-09-07T19:18:50.608Z,52
2022-09-07T19:20:50.552Z,51
2022-09-07T19:22:50.371Z,51
2022-09-07T19:24:50.179Z,51
2022-09-07T19:26:50.467Z,51
2022-09-07T19:28:50.127Z,51
2022-09-07T19:30:50.042Z,52
2022-09-07T19:32:51.045Z,52
2022-09-07T19:34:50.523Z,55
2022-09-07T19:36:50.729Z,55
2022-09-07T19:38:50.601Z,56
2022-09-07T19:40:50.667Z,57
2022-09-07T19:42:50.592Z,57
2022-09-07T19:44:50.521Z,57
2022-09-07T19:46:51.159Z,56
2022-09-07T19:48:50.155Z,55
2022-09-07T19:50:50.078Z,54
2022-09-07T19:52:51.037Z,56
2022-09-07T19:54:50.979Z,56
2022-09-07T19:56:50.310Z,56
2022-09-07T19:58:50.201Z,57
2022-09-07T20:00:50.513Z,57
2022-09-07T20:02:50.573Z,56
2022-09-07T20:04:50.944Z,56
2022-09-07T20:06:50.877Z,57
2022-09-07T20:08:50.832Z,58
2022-09-07T20:10:50.740Z,60
2022-09-07T20:12:50.853Z,60
2022-09-07T20:14:50.812Z,60
2022-09-07T20:16:50.940Z,60
2022-09-07T20:18:50.897Z,59
2022-09-07T20:20:50.058Z,58
2022-09-07T20:22:50.925Z,58
2022-09-07T20:24:50.977Z,58
2022-09-07T20:26:50.456Z,58
2022-09-07T20:29:29.285Z,58
2022-09-07T20:30:50.455Z,58
2022-09-07T20:32:50.431Z,58
2022-09-07T20:34:50.857Z,60
2022-09-07T20:36:50.942Z,61
2022-09-07T20:38:50.812Z,61
2022-09-07T20:40:50.926Z,61
2022-09-07T20:42:50.870Z,61
2022-09-07T20:44:50.919Z,62
2022-09-07T20:46:50.626Z,61
2022-09-07T20:48:50.647Z,60
2022-09-07T20:50:50.607Z,60
2022-09-07T20:52:50.528Z,60
2022-09-07T20:54:50.449Z,60
2022-09-07T20:56:50.749Z,61
2022-09-07T20:58:50.438Z,61
2022-09-07T21:00:50.801Z,61
2022-09-07T21:02:50.817Z,60
2022-09-07T21:04:50.389Z,60
2022-09-07T21:06:50.724Z,60
2022-09-07T21:08:50.574Z,60
2022-09-07T21:10:50.546Z,60
2022-09-07T21:12:50.275Z,60
2022-09-07T21:14:50.205Z,60
2022-09-07T21:16:50.618Z,62
2022-09-07T21:18:50.627Z,62
2022-09-07T21:21:21.066Z,63
2022-09-07T21:22:50.142Z,63
2022-09-07T21:24:50.976Z,63
2022-09-07T21:26:50.206Z,63
2022-09-07T21:28:50.235Z,63
2022-09-07T21:30:50.106Z,63
2022-09-07T21:32:50.127Z,63
2022-09-07T21:34:50.325Z,63
2022-09-07T21:36:50.562Z,63
2022-09-07T21:38:50.511Z,63
2022-09-07T21:40:50.526Z,63
2022-09-07T21:42:50.268Z,63
2022-09-07T21:44:50.266Z,63
2022-09-07T21:46:50.922Z,64
2022-09-07T21:48:51.043Z,64
2022-09-07T21:50:51.011Z,63
2022-09-07T21:52:50.057Z,64
2022-09-07T21:54:51.032Z,63
2022-09-07T21:56:50.276Z,62
2022-09-07T21:58:50.210Z,62
2022-09-07T22:00:50.555Z,62
2022-09-07T22:02:50.670Z,62
2022-09-07T22:04:50.181Z,62
2022-09-07T22:06:50.444Z,62
2022-09-07T22:08:50.265Z,62
2022-09-07T22:10:50.324Z,62
2022-09-07T22:12:50.207Z,62
2022-09-07T22:14:50.225Z,62
2022-09-07T22:16:50.386Z,62
2022-09-07T22:18:50.522Z,63
2022-09-07T22:20:50.342Z,63
2022-09-07T22:22:50.436Z,63
2022-09-07T22:24:50.241Z,63
2022-09-07T22:26:50.431Z,63
2022-09-07T22:28:50.436Z,62
2022-09-07T22:30:50.269Z,64
2022-09-07T22:32:50.672Z,64
2022-09-07T22:34:50.552Z,64
2022-09-07T22:36:50.775Z,64
2022-09-07T22:38:50.863Z,64
2022-09-07T22:40:50.788Z,63
2022-09-07T22:42:50.568Z,64
2022-09-07T22:44:50.461Z,64
2022-09-07T22:46:51.116Z,64
2022-09-07T22:48:51.016Z,65
2022-09-07T22:50:50.954Z,65
2022-09-07T22:52:50.797Z,65
2022-09-07T22:54:50.690Z,65
2022-09-07T22:56:50.146Z,65
2022-09-07T22:58:50.100Z,65
2022-09-07T23:00:50.880Z,65
2022-09-07T23:02:50.783Z,65
2022-09-07T23:04:51.315Z,65
2022-09-07T23:06:50.706Z,65
2022-09-07T23:08:50.452Z,65
2022-09-07T23:10:50.535Z,65
2022-09-07T23:12:50.474Z,65
2022-09-07T23:14:50.432Z,65
2022-09-07T23:16:50.556Z,65
2022-09-07T23:18:50.539Z,65
2022-09-07T23:20:50.331Z,65
2022-09-07T23:22:50.584Z,65
2022-09-07T23:24:50.481Z,65
2022-09-07T23:26:50.787Z,65
2022-09-07T23:28:50.781Z,64
2022-09-07T23:30:50.725Z,64
2022-09-07T23:32:50.650Z,65
2022-09-07T23:34:50.312Z,65
2022-09-07T23:36:50.293Z,65
2022-09-07T23:38:50.242Z,65
2022-09-07T23:40:50.457Z,65
2022-09-07T23:42:50.320Z,65
2022-09-07T23:44:50.392Z,65
2022-09-07T23:46:50.893Z,65
2022-09-07T23:48:50.174Z,65
2022-09-07T23:50:50.045Z,65
2022-09-07T23:52:50.069Z,65
2022-09-07T23:54:50.912Z,65
2022-09-07T23:56:50.172Z,65
2022-09-07T23:58:50.097Z,65
